sensor_id;sensor_type;location;lat;lon;timestamp;P1;durP1;ratioP1;P2;durP2;ratioP2
66886;SDS011;67239;51.680;5.976;2023-02-15T00:00:05;39.17;;;24.20;;
66886;SDS011;67239;51.680;5.976;2023-02-15T00:02:37;38.63;;;23.30;;
66886;SDS011;67239;51.680;5.976;2023-02-15T00:05:05;44.65;;;25.08;;
66886;SDS011;67239;51.680;5.976;2023-02-15T00:07:33;43.47;;;24.08;;
66886;SDS011;67239;51.680;5.976;2023-02-15T00:10:00;43.55;;;24.85;;
66886;SDS011;67239;51.680;5.976;2023-02-15T00:12:27;41.13;;;24.67;;
66886;SDS011;67239;51.680;5.976;2023-02-15T00:14:54;41.60;;;25.00;;
66886;SDS011;67239;51.680;5.976;2023-02-15T00:17:21;41.30;;;24.45;;
66886;SDS011;67239;51.680;5.976;2023-02-15T00:19:48;45.22;;;25.42;;
66886;SDS011;67239;51.680;5.976;2023-02-15T00:22:15;40.65;;;25.25;;
66886;SDS011;67239;51.680;5.976;2023-02-15T00:24:42;41.75;;;24.50;;
66886;SDS011;67239;51.680;5.976;2023-02-15T00:27:09;40.75;;;24.92;;
66886;SDS011;67239;51.680;5.976;2023-02-15T00:29:38;43.08;;;26.27;;
66886;SDS011;67239;51.680;5.976;2023-02-15T00:32:05;42.92;;;26.02;;
66886;SDS011;67239;51.680;5.976;2023-02-15T00:34:32;48.42;;;26.38;;
66886;SDS011;67239;51.680;5.976;2023-02-15T00:37:00;42.92;;;25.17;;
66886;SDS011;67239;51.680;5.976;2023-02-15T00:39:27;44.13;;;25.13;;
66886;SDS011;67239;51.680;5.976;2023-02-15T00:41:55;47.50;;;26.08;;
66886;SDS011;67239;51.680;5.976;2023-02-15T00:44:22;42.22;;;25.00;;
66886;SDS011;67239;51.680;5.976;2023-02-15T00:46:49;40.35;;;24.45;;
66886;SDS011;67239;51.680;5.976;2023-02-15T00:49:16;45.05;;;24.27;;
66886;SDS011;67239;51.680;5.976;2023-02-15T00:51:43;40.03;;;23.77;;
66886;SDS011;67239;51.680;5.976;2023-02-15T00:54:10;40.92;;;23.48;;
66886;SDS011;67239;51.680;5.976;2023-02-15T00:56:37;42.72;;;25.17;;
66886;SDS011;67239;51.680;5.976;2023-02-15T00:59:04;38.78;;;23.13;;
66886;SDS011;67239;51.680;5.976;2023-02-15T01:01:32;37.88;;;23.45;;
66886;SDS011;67239;51.680;5.976;2023-02-15T01:03:59;39.90;;;23.05;;
66886;SDS011;67239;51.680;5.976;2023-02-15T01:06:28;42.65;;;23.67;;
66886;SDS011;67239;51.680;5.976;2023-02-15T01:08:55;42.10;;;24.23;;
66886;SDS011;67239;51.680;5.976;2023-02-15T01:11:22;45.28;;;22.73;;
66886;SDS011;67239;51.680;5.976;2023-02-15T01:13:54;41.13;;;23.38;;
66886;SDS011;67239;51.680;5.976;2023-02-15T01:16:25;38.58;;;23.38;;
66886;SDS011;67239;51.680;5.976;2023-02-15T01:18:54;42.55;;;23.92;;
66886;SDS011;67239;51.680;5.976;2023-02-15T01:21:22;43.80;;;23.90;;
66886;SDS011;67239;51.680;5.976;2023-02-15T01:23:52;38.20;;;22.42;;
66886;SDS011;67239;51.680;5.976;2023-02-15T01:26:19;42.05;;;23.65;;
66886;SDS011;67239;51.680;5.976;2023-02-15T01:28:47;36.97;;;22.65;;
66886;SDS011;67239;51.680;5.976;2023-02-15T01:31:16;41.10;;;23.92;;
66886;SDS011;67239;51.680;5.976;2023-02-15T01:33:47;42.55;;;24.27;;
66886;SDS011;67239;51.680;5.976;2023-02-15T01:36:15;41.45;;;23.05;;
66886;SDS011;67239;51.680;5.976;2023-02-15T01:38:44;38.90;;;24.10;;
66886;SDS011;67239;51.680;5.976;2023-02-15T01:41:11;42.03;;;24.45;;
66886;SDS011;67239;51.680;5.976;2023-02-15T01:43:59;45.63;;;25.50;;
66886;SDS011;67239;51.680;5.976;2023-02-15T01:46:40;42.60;;;24.13;;
66886;SDS011;67239;51.680;5.976;2023-02-15T01:49:20;40.97;;;23.58;;
66886;SDS011;67239;51.680;5.976;2023-02-15T01:51:52;42.53;;;23.58;;
66886;SDS011;67239;51.680;5.976;2023-02-15T01:54:25;40.22;;;24.08;;
66886;SDS011;67239;51.680;5.976;2023-02-15T01:59:31;40.90;;;23.02;;
66886;SDS011;67239;51.680;5.976;2023-02-15T02:02:02;41.55;;;24.02;;
66886;SDS011;67239;51.680;5.976;2023-02-15T02:04:48;47.05;;;24.33;;
66886;SDS011;67239;51.680;5.976;2023-02-15T02:07:30;43.78;;;23.35;;
66886;SDS011;67239;51.680;5.976;2023-02-15T02:10:04;42.97;;;24.23;;
66886;SDS011;67239;51.680;5.976;2023-02-15T02:12:34;43.42;;;25.52;;
66886;SDS011;67239;51.680;5.976;2023-02-15T02:15:07;42.50;;;23.25;;
66886;SDS011;67239;51.680;5.976;2023-02-15T02:17:41;37.47;;;24.08;;
66886;SDS011;67239;51.680;5.976;2023-02-15T02:39:06;39.65;;;21.92;;
66886;SDS011;67239;51.680;5.976;2023-02-15T02:41:36;40.40;;;24.15;;
66886;SDS011;67239;51.680;5.976;2023-02-15T02:55:19;38.25;;;22.83;;
66886;SDS011;67239;51.680;5.976;2023-02-15T02:58:03;45.65;;;24.33;;
66886;SDS011;67239;51.680;5.976;2023-02-15T03:00:36;40.80;;;24.08;;
66886;SDS011;67239;51.680;5.976;2023-02-15T03:03:30;42.30;;;23.00;;
66886;SDS011;67239;51.680;5.976;2023-02-15T03:06:06;45.85;;;23.38;;
66886;SDS011;67239;51.680;5.976;2023-02-15T03:08:46;40.22;;;24.30;;
66886;SDS011;67239;51.680;5.976;2023-02-15T03:11:20;40.80;;;23.67;;
66886;SDS011;67239;51.680;5.976;2023-02-15T03:13:49;37.40;;;21.45;;
66886;SDS011;67239;51.680;5.976;2023-02-15T03:16:18;38.05;;;22.88;;
66886;SDS011;67239;51.680;5.976;2023-02-15T03:19:11;37.55;;;21.50;;
66886;SDS011;67239;51.680;5.976;2023-02-15T03:21:47;38.95;;;22.15;;
66886;SDS011;67239;51.680;5.976;2023-02-15T03:24:26;40.85;;;22.20;;
66886;SDS011;67239;51.680;5.976;2023-02-15T03:27:03;39.63;;;22.77;;
66886;SDS011;67239;51.680;5.976;2023-02-15T03:29:46;46.55;;;22.85;;
66886;SDS011;67239;51.680;5.976;2023-02-15T03:32:17;41.17;;;22.23;;
66886;SDS011;67239;51.680;5.976;2023-02-15T03:34:46;42.83;;;23.10;;
66886;SDS011;67239;51.680;5.976;2023-02-15T03:37:15;42.90;;;23.75;;
66886;SDS011;67239;51.680;5.976;2023-02-15T03:39:55;41.13;;;23.27;;
66886;SDS011;67239;51.680;5.976;2023-02-15T03:42:49;39.10;;;22.88;;
66886;SDS011;67239;51.680;5.976;2023-02-15T03:45:29;43.35;;;23.38;;
66886;SDS011;67239;51.680;5.976;2023-02-15T03:48:00;41.97;;;23.13;;
66886;SDS011;67239;51.680;5.976;2023-02-15T03:50:31;43.70;;;22.50;;
66886;SDS011;67239;51.680;5.976;2023-02-15T03:53:21;44.15;;;23.20;;
66886;SDS011;67239;51.680;5.976;2023-02-15T03:55:54;40.60;;;22.45;;
66886;SDS011;67239;51.680;5.976;2023-02-15T03:58:22;41.70;;;23.90;;
66886;SDS011;67239;51.680;5.976;2023-02-15T04:01:11;41.42;;;22.25;;
66886;SDS011;67239;51.680;5.976;2023-02-15T04:07:12;39.13;;;22.02;;
66886;SDS011;67239;51.680;5.976;2023-02-15T04:09:39;43.75;;;22.95;;
66886;SDS011;67239;51.680;5.976;2023-02-15T04:12:25;49.45;;;23.38;;
66886;SDS011;67239;51.680;5.976;2023-02-15T04:14:52;44.83;;;22.27;;
66886;SDS011;67239;51.680;5.976;2023-02-15T04:17:38;41.85;;;22.25;;
66886;SDS011;67239;51.680;5.976;2023-02-15T04:20:05;43.70;;;22.75;;
66886;SDS011;67239;51.680;5.976;2023-02-15T04:22:53;44.88;;;23.83;;
66886;SDS011;67239;51.680;5.976;2023-02-15T04:25:39;53.75;;;25.23;;
66886;SDS011;67239;51.680;5.976;2023-02-15T04:28:07;48.00;;;25.08;;
66886;SDS011;67239;51.680;5.976;2023-02-15T04:30:34;53.20;;;26.88;;
66886;SDS011;67239;51.680;5.976;2023-02-15T04:33:02;49.83;;;25.65;;
66886;SDS011;67239;51.680;5.976;2023-02-15T04:35:31;50.70;;;26.38;;
66886;SDS011;67239;51.680;5.976;2023-02-15T04:38:00;49.75;;;26.67;;
66886;SDS011;67239;51.680;5.976;2023-02-15T04:40:27;56.10;;;26.73;;
66886;SDS011;67239;51.680;5.976;2023-02-15T04:42:54;55.00;;;27.52;;
66886;SDS011;67239;51.680;5.976;2023-02-15T04:45:21;56.25;;;28.83;;
66886;SDS011;67239;51.680;5.976;2023-02-15T04:47:48;53.70;;;27.75;;
66886;SDS011;67239;51.680;5.976;2023-02-15T04:50:15;54.50;;;27.30;;
66886;SDS011;67239;51.680;5.976;2023-02-15T04:52:42;57.40;;;28.02;;
66886;SDS011;67239;51.680;5.976;2023-02-15T04:55:10;52.25;;;25.92;;
66886;SDS011;67239;51.680;5.976;2023-02-15T04:57:37;54.15;;;29.52;;
66886;SDS011;67239;51.680;5.976;2023-02-15T05:00:04;53.60;;;26.20;;
66886;SDS011;67239;51.680;5.976;2023-02-15T05:02:35;52.28;;;26.15;;
66886;SDS011;67239;51.680;5.976;2023-02-15T05:05:02;49.88;;;25.98;;
66886;SDS011;67239;51.680;5.976;2023-02-15T05:07:29;47.40;;;25.10;;
66886;SDS011;67239;51.680;5.976;2023-02-15T05:09:56;50.47;;;24.08;;
66886;SDS011;67239;51.680;5.976;2023-02-15T05:12:23;50.90;;;27.33;;
66886;SDS011;67239;51.680;5.976;2023-02-15T05:14:50;52.15;;;26.67;;
66886;SDS011;67239;51.680;5.976;2023-02-15T05:17:17;54.75;;;27.45;;
66886;SDS011;67239;51.680;5.976;2023-02-15T05:19:44;52.00;;;26.10;;
66886;SDS011;67239;51.680;5.976;2023-02-15T05:22:11;49.97;;;25.95;;
66886;SDS011;67239;51.680;5.976;2023-02-15T05:24:38;55.45;;;27.13;;
66886;SDS011;67239;51.680;5.976;2023-02-15T05:27:23;56.47;;;28.73;;
66886;SDS011;67239;51.680;5.976;2023-02-15T05:30:09;56.42;;;26.35;;
66886;SDS011;67239;51.680;5.976;2023-02-15T05:32:38;58.70;;;29.17;;
66886;SDS011;67239;51.680;5.976;2023-02-15T05:35:06;59.33;;;27.98;;
66886;SDS011;67239;51.680;5.976;2023-02-15T05:37:34;54.95;;;28.15;;
66886;SDS011;67239;51.680;5.976;2023-02-15T05:40:01;54.35;;;27.95;;
66886;SDS011;67239;51.680;5.976;2023-02-15T05:42:28;61.90;;;27.75;;
66886;SDS011;67239;51.680;5.976;2023-02-15T05:44:55;58.88;;;28.25;;
66886;SDS011;67239;51.680;5.976;2023-02-15T05:47:22;65.53;;;30.17;;
66886;SDS011;67239;51.680;5.976;2023-02-15T05:49:49;63.05;;;29.70;;
66886;SDS011;67239;51.680;5.976;2023-02-15T05:52:16;61.78;;;28.48;;
66886;SDS011;67239;51.680;5.976;2023-02-15T05:54:43;60.25;;;27.42;;
66886;SDS011;67239;51.680;5.976;2023-02-15T05:57:09;58.45;;;27.85;;
66886;SDS011;67239;51.680;5.976;2023-02-15T05:59:36;63.60;;;31.40;;
66886;SDS011;67239;51.680;5.976;2023-02-15T06:02:03;61.35;;;29.83;;
66886;SDS011;67239;51.680;5.976;2023-02-15T06:04:33;63.38;;;32.03;;
66886;SDS011;67239;51.680;5.976;2023-02-15T06:06:59;58.67;;;26.98;;
66886;SDS011;67239;51.680;5.976;2023-02-15T06:09:26;58.08;;;27.77;;
66886;SDS011;67239;51.680;5.976;2023-02-15T06:11:53;66.53;;;28.58;;
66886;SDS011;67239;51.680;5.976;2023-02-15T06:14:20;59.25;;;28.27;;
66886;SDS011;67239;51.680;5.976;2023-02-15T06:16:48;52.55;;;28.67;;
66886;SDS011;67239;51.680;5.976;2023-02-15T06:19:15;58.60;;;29.17;;
66886;SDS011;67239;51.680;5.976;2023-02-15T06:21:42;54.10;;;27.08;;
66886;SDS011;67239;51.680;5.976;2023-02-15T06:24:09;60.45;;;29.70;;
66886;SDS011;67239;51.680;5.976;2023-02-15T06:26:36;56.05;;;29.80;;
66886;SDS011;67239;51.680;5.976;2023-02-15T06:29:03;58.83;;;29.45;;
66886;SDS011;67239;51.680;5.976;2023-02-15T06:31:30;55.75;;;27.83;;
66886;SDS011;67239;51.680;5.976;2023-02-15T06:33:57;54.75;;;26.95;;
66886;SDS011;67239;51.680;5.976;2023-02-15T06:36:28;56.30;;;26.92;;
66886;SDS011;67239;51.680;5.976;2023-02-15T06:38:56;62.83;;;28.88;;
66886;SDS011;67239;51.680;5.976;2023-02-15T06:41:23;56.38;;;26.83;;
66886;SDS011;67239;51.680;5.976;2023-02-15T06:43:50;57.65;;;27.77;;
66886;SDS011;67239;51.680;5.976;2023-02-15T06:46:18;54.67;;;27.08;;
66886;SDS011;67239;51.680;5.976;2023-02-15T06:48:45;55.85;;;26.30;;
66886;SDS011;67239;51.680;5.976;2023-02-15T06:51:12;61.47;;;28.58;;
66886;SDS011;67239;51.680;5.976;2023-02-15T06:53:39;57.05;;;26.88;;
66886;SDS011;67239;51.680;5.976;2023-02-15T06:56:09;56.88;;;27.05;;
66886;SDS011;67239;51.680;5.976;2023-02-15T06:58:38;53.17;;;26.40;;
66886;SDS011;67239;51.680;5.976;2023-02-15T07:01:06;56.70;;;27.90;;
66886;SDS011;67239;51.680;5.976;2023-02-15T07:03:35;62.90;;;28.00;;
66886;SDS011;67239;51.680;5.976;2023-02-15T07:06:03;61.80;;;27.75;;
66886;SDS011;67239;51.680;5.976;2023-02-15T07:08:35;61.72;;;31.77;;
66886;SDS011;67239;51.680;5.976;2023-02-15T07:11:02;60.78;;;31.05;;
66886;SDS011;67239;51.680;5.976;2023-02-15T07:13:48;57.00;;;26.33;;
66886;SDS011;67239;51.680;5.976;2023-02-15T07:16:15;58.10;;;27.65;;
66886;SDS011;67239;51.680;5.976;2023-02-15T07:18:42;58.58;;;28.05;;
66886;SDS011;67239;51.680;5.976;2023-02-15T07:21:09;54.25;;;27.90;;
66886;SDS011;67239;51.680;5.976;2023-02-15T07:23:37;59.20;;;28.83;;
66886;SDS011;67239;51.680;5.976;2023-02-15T07:26:06;56.53;;;27.83;;
66886;SDS011;67239;51.680;5.976;2023-02-15T07:28:34;59.35;;;28.63;;
66886;SDS011;67239;51.680;5.976;2023-02-15T07:31:03;59.38;;;29.88;;
66886;SDS011;67239;51.680;5.976;2023-02-15T07:33:32;69.32;;;33.90;;
66886;SDS011;67239;51.680;5.976;2023-02-15T07:36:00;64.75;;;31.45;;
66886;SDS011;67239;51.680;5.976;2023-02-15T07:38:32;68.28;;;33.22;;
66886;SDS011;67239;51.680;5.976;2023-02-15T07:41:02;64.57;;;32.05;;
66886;SDS011;67239;51.680;5.976;2023-02-15T07:43:32;60.78;;;31.40;;
66886;SDS011;67239;51.680;5.976;2023-02-15T07:46:07;67.18;;;31.50;;
66886;SDS011;67239;51.680;5.976;2023-02-15T07:48:38;63.20;;;32.08;;
66886;SDS011;67239;51.680;5.976;2023-02-15T07:51:08;63.28;;;31.08;;
66886;SDS011;67239;51.680;5.976;2023-02-15T07:53:37;60.13;;;31.42;;
66886;SDS011;67239;51.680;5.976;2023-02-15T07:56:06;63.83;;;32.33;;
66886;SDS011;67239;51.680;5.976;2023-02-15T07:58:37;64.53;;;32.22;;
66886;SDS011;67239;51.680;5.976;2023-02-15T08:01:18;57.97;;;30.70;;
66886;SDS011;67239;51.680;5.976;2023-02-15T08:03:53;64.53;;;34.65;;
66886;SDS011;67239;51.680;5.976;2023-02-15T08:06:25;59.88;;;31.60;;
66886;SDS011;67239;51.680;5.976;2023-02-15T08:08:55;61.58;;;33.20;;
66886;SDS011;67239;51.680;5.976;2023-02-15T08:11:24;61.50;;;30.55;;
66886;SDS011;67239;51.680;5.976;2023-02-15T08:14:01;58.17;;;30.55;;
66886;SDS011;67239;51.680;5.976;2023-02-15T08:16:45;57.45;;;30.40;;
66886;SDS011;67239;51.680;5.976;2023-02-15T08:19:29;54.03;;;29.35;;
66886;SDS011;67239;51.680;5.976;2023-02-15T08:22:03;56.70;;;28.75;;
66886;SDS011;67239;51.680;5.976;2023-02-15T08:24:36;53.28;;;28.73;;
66886;SDS011;67239;51.680;5.976;2023-02-15T08:27:05;53.90;;;29.00;;
66886;SDS011;67239;51.680;5.976;2023-02-15T08:29:35;53.63;;;29.50;;
66886;SDS011;67239;51.680;5.976;2023-02-15T08:32:08;49.47;;;28.27;;
66886;SDS011;67239;51.680;5.976;2023-02-15T08:34:39;50.55;;;28.15;;
66886;SDS011;67239;51.680;5.976;2023-02-15T08:37:08;48.33;;;27.20;;
66886;SDS011;67239;51.680;5.976;2023-02-15T08:39:35;49.10;;;28.25;;
66886;SDS011;67239;51.680;5.976;2023-02-15T08:42:03;50.47;;;27.92;;
66886;SDS011;67239;51.680;5.976;2023-02-15T08:44:30;48.53;;;27.30;;
66886;SDS011;67239;51.680;5.976;2023-02-15T08:46:57;49.17;;;27.60;;
66886;SDS011;67239;51.680;5.976;2023-02-15T08:49:30;47.70;;;26.58;;
66886;SDS011;67239;51.680;5.976;2023-02-15T08:51:57;47.13;;;26.80;;
66886;SDS011;67239;51.680;5.976;2023-02-15T08:54:24;44.85;;;26.52;;
66886;SDS011;67239;51.680;5.976;2023-02-15T08:56:51;45.55;;;26.63;;
66886;SDS011;67239;51.680;5.976;2023-02-15T08:59:19;46.55;;;26.30;;
66886;SDS011;67239;51.680;5.976;2023-02-15T09:01:50;42.58;;;24.60;;
66886;SDS011;67239;51.680;5.976;2023-02-15T09:04:18;43.10;;;24.27;;
66886;SDS011;67239;51.680;5.976;2023-02-15T09:06:48;45.15;;;24.58;;
66886;SDS011;67239;51.680;5.976;2023-02-15T09:09:16;42.67;;;23.83;;
66886;SDS011;67239;51.680;5.976;2023-02-15T09:11:45;40.05;;;23.70;;
66886;SDS011;67239;51.680;5.976;2023-02-15T09:14:23;44.55;;;23.80;;
66886;SDS011;67239;51.680;5.976;2023-02-15T09:16:51;45.45;;;23.35;;
66886;SDS011;67239;51.680;5.976;2023-02-15T09:19:20;59.47;;;23.85;;
66886;SDS011;67239;51.680;5.976;2023-02-15T09:21:49;49.17;;;23.48;;
66886;SDS011;67239;51.680;5.976;2023-02-15T09:24:17;38.85;;;22.50;;
66886;SDS011;67239;51.680;5.976;2023-02-15T09:26:45;37.85;;;22.48;;
66886;SDS011;67239;51.680;5.976;2023-02-15T09:29:14;62.47;;;24.80;;
66886;SDS011;67239;51.680;5.976;2023-02-15T09:31:45;44.42;;;23.20;;
66886;SDS011;67239;51.680;5.976;2023-02-15T09:34:16;48.33;;;22.92;;
66886;SDS011;67239;51.680;5.976;2023-02-15T09:36:46;43.10;;;21.95;;
66886;SDS011;67239;51.680;5.976;2023-02-15T09:39:16;41.33;;;22.20;;
66886;SDS011;67239;51.680;5.976;2023-02-15T09:57:06;42.33;;;22.80;;
66886;SDS011;67239;51.680;5.976;2023-02-15T10:02:56;40.95;;;22.73;;
66886;SDS011;67239;51.680;5.976;2023-02-15T10:09:22;35.28;;;20.63;;
66886;SDS011;67239;51.680;5.976;2023-02-15T10:19:23;52.17;;;26.35;;
66886;SDS011;67239;51.680;5.976;2023-02-15T10:27:34;41.65;;;24.00;;
66886;SDS011;67239;51.680;5.976;2023-02-15T10:30:14;38.05;;;21.35;;
66886;SDS011;67239;51.680;5.976;2023-02-15T10:32:51;44.67;;;21.95;;
66886;SDS011;67239;51.680;5.976;2023-02-15T10:38:42;47.58;;;23.75;;
66886;SDS011;67239;51.680;5.976;2023-02-15T10:41:44;39.50;;;22.13;;
66886;SDS011;67239;51.680;5.976;2023-02-15T10:44:54;38.78;;;23.05;;
66886;SDS011;67239;51.680;5.976;2023-02-15T10:50:49;49.47;;;22.50;;
66886;SDS011;67239;51.680;5.976;2023-02-15T11:08:21;39.50;;;21.20;;
66886;SDS011;67239;51.680;5.976;2023-02-15T11:10:52;38.15;;;19.98;;
66886;SDS011;67239;51.680;5.976;2023-02-15T11:13:29;45.63;;;21.80;;
66886;SDS011;67239;51.680;5.976;2023-02-15T11:16:16;38.75;;;21.08;;
66886;SDS011;67239;51.680;5.976;2023-02-15T11:18:59;36.65;;;21.40;;
66886;SDS011;67239;51.680;5.976;2023-02-15T11:21:39;37.15;;;21.65;;
66886;SDS011;67239;51.680;5.976;2023-02-15T11:24:14;43.55;;;22.30;;
66886;SDS011;67239;51.680;5.976;2023-02-15T11:26:50;37.10;;;21.23;;
66886;SDS011;67239;51.680;5.976;2023-02-15T11:29:37;37.88;;;20.95;;
66886;SDS011;67239;51.680;5.976;2023-02-15T11:32:19;54.55;;;22.10;;
66886;SDS011;67239;51.680;5.976;2023-02-15T11:34:55;55.78;;;21.52;;
66886;SDS011;67239;51.680;5.976;2023-02-15T11:37:40;37.13;;;20.55;;
66886;SDS011;67239;51.680;5.976;2023-02-15T11:40:36;32.35;;;19.92;;
66886;SDS011;67239;51.680;5.976;2023-02-15T11:43:14;37.28;;;21.25;;
66886;SDS011;67239;51.680;5.976;2023-02-15T11:45:51;53.42;;;22.00;;
66886;SDS011;67239;51.680;5.976;2023-02-15T11:48:18;44.92;;;20.88;;
66886;SDS011;67239;51.680;5.976;2023-02-15T11:50:45;58.90;;;21.10;;
66886;SDS011;67239;51.680;5.976;2023-02-15T11:53:19;32.78;;;19.80;;
66886;SDS011;67239;51.680;5.976;2023-02-15T11:55:54;34.33;;;18.55;;
66886;SDS011;67239;51.680;5.976;2023-02-15T12:01:14;33.30;;;18.85;;
66886;SDS011;67239;51.680;5.976;2023-02-15T12:06:59;39.85;;;22.48;;
66886;SDS011;67239;51.680;5.976;2023-02-15T12:12:24;40.80;;;18.85;;
66886;SDS011;67239;51.680;5.976;2023-02-15T12:15:06;30.50;;;17.83;;
66886;SDS011;67239;51.680;5.976;2023-02-15T12:22:46;31.23;;;17.70;;
66886;SDS011;67239;51.680;5.976;2023-02-15T12:25:30;35.28;;;19.10;;
66886;SDS011;67239;51.680;5.976;2023-02-15T12:28:05;29.70;;;17.70;;
66886;SDS011;67239;51.680;5.976;2023-02-15T12:30:51;31.13;;;17.83;;
66886;SDS011;67239;51.680;5.976;2023-02-15T12:36:04;31.10;;;18.27;;
66886;SDS011;67239;51.680;5.976;2023-02-15T12:38:41;31.60;;;16.58;;
66886;SDS011;67239;51.680;5.976;2023-02-15T12:41:25;36.08;;;18.17;;
66886;SDS011;67239;51.680;5.976;2023-02-15T12:44:02;31.02;;;17.38;;
66886;SDS011;67239;51.680;5.976;2023-02-15T12:46:40;29.25;;;16.58;;
66886;SDS011;67239;51.680;5.976;2023-02-15T12:49:18;30.83;;;17.08;;
66886;SDS011;67239;51.680;5.976;2023-02-15T12:54:17;31.90;;;17.35;;
66886;SDS011;67239;51.680;5.976;2023-02-15T12:56:57;31.27;;;17.23;;
66886;SDS011;67239;51.680;5.976;2023-02-15T12:59:25;31.15;;;17.27;;
66886;SDS011;67239;51.680;5.976;2023-02-15T13:01:53;32.58;;;17.00;;
66886;SDS011;67239;51.680;5.976;2023-02-15T13:06:54;28.77;;;16.77;;
66886;SDS011;67239;51.680;5.976;2023-02-15T13:09:33;29.70;;;17.15;;
66886;SDS011;67239;51.680;5.976;2023-02-15T13:12:10;32.67;;;16.60;;
66886;SDS011;67239;51.680;5.976;2023-02-15T13:14:51;34.87;;;17.20;;
66886;SDS011;67239;51.680;5.976;2023-02-15T13:17:23;35.35;;;17.35;;
66886;SDS011;67239;51.680;5.976;2023-02-15T13:19:59;35.85;;;16.88;;
66886;SDS011;67239;51.680;5.976;2023-02-15T13:22:38;32.88;;;16.35;;
66886;SDS011;67239;51.680;5.976;2023-02-15T13:25:13;38.20;;;17.35;;
66886;SDS011;67239;51.680;5.976;2023-02-15T13:27:46;42.05;;;17.58;;
66886;SDS011;67239;51.680;5.976;2023-02-15T13:33:05;31.92;;;17.17;;
66886;SDS011;67239;51.680;5.976;2023-02-15T13:35:44;30.90;;;16.73;;
66886;SDS011;67239;51.680;5.976;2023-02-15T13:38:26;28.85;;;16.60;;
66886;SDS011;67239;51.680;5.976;2023-02-15T13:41:31;33.25;;;16.92;;
66886;SDS011;67239;51.680;5.976;2023-02-15T13:56:16;43.90;;;20.55;;
66886;SDS011;67239;51.680;5.976;2023-02-15T13:58:54;35.95;;;20.33;;
66886;SDS011;67239;51.680;5.976;2023-02-15T14:01:44;40.25;;;25.33;;
66886;SDS011;67239;51.680;5.976;2023-02-15T14:09:44;37.47;;;19.67;;
66886;SDS011;67239;51.680;5.976;2023-02-15T14:24:18;31.67;;;16.98;;
66886;SDS011;67239;51.680;5.976;2023-02-15T14:30:44;32.42;;;17.02;;
66886;SDS011;67239;51.680;5.976;2023-02-15T14:36:16;32.38;;;17.13;;
66886;SDS011;67239;51.680;5.976;2023-02-15T14:42:13;34.15;;;17.70;;
66886;SDS011;67239;51.680;5.976;2023-02-15T14:45:00;33.45;;;16.80;;
66886;SDS011;67239;51.680;5.976;2023-02-15T14:47:36;29.83;;;17.15;;
66886;SDS011;67239;51.680;5.976;2023-02-15T14:50:58;30.95;;;16.92;;
66886;SDS011;67239;51.680;5.976;2023-02-15T14:53:16;33.30;;;17.80;;
66886;SDS011;67239;51.680;5.976;2023-02-15T14:56:04;36.97;;;17.65;;
66886;SDS011;67239;51.680;5.976;2023-02-15T15:01:17;36.97;;;17.00;;
66886;SDS011;67239;51.680;5.976;2023-02-15T15:03:59;35.58;;;17.88;;
66886;SDS011;67239;51.680;5.976;2023-02-15T15:06:36;31.85;;;17.75;;
66886;SDS011;67239;51.680;5.976;2023-02-15T15:11:52;52.05;;;32.28;;
66886;SDS011;67239;51.680;5.976;2023-02-15T15:17:01;40.70;;;23.48;;
66886;SDS011;67239;51.680;5.976;2023-02-15T15:22:19;42.67;;;23.48;;
66886;SDS011;67239;51.680;5.976;2023-02-15T15:24:55;38.13;;;20.25;;
66886;SDS011;67239;51.680;5.976;2023-02-15T15:32:41;49.83;;;28.88;;
66886;SDS011;67239;51.680;5.976;2023-02-15T15:50:18;45.72;;;21.15;;
66886;SDS011;67239;51.680;5.976;2023-02-15T15:52:52;43.17;;;21.90;;
66886;SDS011;67239;51.680;5.976;2023-02-15T15:55:23;36.30;;;20.13;;
66886;SDS011;67239;51.680;5.976;2023-02-15T15:58:04;38.03;;;21.50;;
66886;SDS011;67239;51.680;5.976;2023-02-15T16:00:39;44.33;;;22.83;;
66886;SDS011;67239;51.680;5.976;2023-02-15T16:03:21;49.92;;;30.42;;
66886;SDS011;67239;51.680;5.976;2023-02-15T16:05:53;47.15;;;24.42;;
66886;SDS011;67239;51.680;5.976;2023-02-15T16:08:28;45.88;;;21.85;;
66886;SDS011;67239;51.680;5.976;2023-02-15T16:11:10;44.42;;;23.42;;
66886;SDS011;67239;51.680;5.976;2023-02-15T16:13:47;45.15;;;21.58;;
66886;SDS011;67239;51.680;5.976;2023-02-15T16:16:19;39.85;;;21.65;;
66886;SDS011;67239;51.680;5.976;2023-02-15T16:18:50;42.20;;;21.35;;
66886;SDS011;67239;51.680;5.976;2023-02-15T16:21:23;40.90;;;20.40;;
66886;SDS011;67239;51.680;5.976;2023-02-15T16:29:57;39.20;;;22.77;;
66886;SDS011;67239;51.680;5.976;2023-02-15T16:32:26;39.80;;;22.02;;
66886;SDS011;67239;51.680;5.976;2023-02-15T16:34:56;36.65;;;20.40;;
66886;SDS011;67239;51.680;5.976;2023-02-15T16:37:27;38.40;;;21.55;;
66886;SDS011;67239;51.680;5.976;2023-02-15T16:40:00;43.40;;;24.23;;
66886;SDS011;67239;51.680;5.976;2023-02-15T16:42:27;37.15;;;21.73;;
66886;SDS011;67239;51.680;5.976;2023-02-15T16:45:00;36.58;;;21.27;;
66886;SDS011;67239;51.680;5.976;2023-02-15T16:47:43;41.95;;;22.65;;
66886;SDS011;67239;51.680;5.976;2023-02-15T16:50:18;44.55;;;23.23;;
66886;SDS011;67239;51.680;5.976;2023-02-15T16:52:50;39.60;;;22.42;;
66886;SDS011;67239;51.680;5.976;2023-02-15T16:55:23;47.17;;;23.77;;
66886;SDS011;67239;51.680;5.976;2023-02-15T17:00:28;47.40;;;23.67;;
66886;SDS011;67239;51.680;5.976;2023-02-15T17:03:12;51.92;;;29.35;;
66886;SDS011;67239;51.680;5.976;2023-02-15T17:05:53;60.10;;;33.47;;
66886;SDS011;67239;51.680;5.976;2023-02-15T17:13:26;43.42;;;26.67;;
66886;SDS011;67239;51.680;5.976;2023-02-15T17:18:29;47.33;;;23.90;;
66886;SDS011;67239;51.680;5.976;2023-02-15T17:21:00;42.10;;;25.05;;
66886;SDS011;67239;51.680;5.976;2023-02-15T17:23:40;41.85;;;23.83;;
66886;SDS011;67239;51.680;5.976;2023-02-15T17:26:22;37.25;;;19.73;;
66886;SDS011;67239;51.680;5.976;2023-02-15T17:29:01;36.05;;;20.30;;
66886;SDS011;67239;51.680;5.976;2023-02-15T17:42:52;62.00;;;34.97;;
66886;SDS011;67239;51.680;5.976;2023-02-15T17:45:20;58.33;;;32.92;;
66886;SDS011;67239;51.680;5.976;2023-02-15T17:47:51;51.50;;;27.40;;
66886;SDS011;67239;51.680;5.976;2023-02-15T17:50:23;49.35;;;31.30;;
66886;SDS011;67239;51.680;5.976;2023-02-15T17:52:53;62.65;;;33.90;;
66886;SDS011;67239;51.680;5.976;2023-02-15T17:55:23;65.47;;;37.90;;
66886;SDS011;67239;51.680;5.976;2023-02-15T17:58:08;47.75;;;25.63;;
66886;SDS011;67239;51.680;5.976;2023-02-15T18:06:33;43.72;;;22.83;;
66886;SDS011;67239;51.680;5.976;2023-02-15T18:09:24;52.42;;;29.10;;
66886;SDS011;67239;51.680;5.976;2023-02-15T18:14:49;41.88;;;25.27;;
66886;SDS011;67239;51.680;5.976;2023-02-15T18:17:17;40.22;;;25.85;;
66886;SDS011;67239;51.680;5.976;2023-02-15T18:19:45;41.13;;;23.38;;
66886;SDS011;67239;51.680;5.976;2023-02-15T18:22:14;38.92;;;23.77;;
66886;SDS011;67239;51.680;5.976;2023-02-15T18:24:45;48.75;;;30.52;;
66886;SDS011;67239;51.680;5.976;2023-02-15T18:27:14;37.97;;;23.50;;
66886;SDS011;67239;51.680;5.976;2023-02-15T18:29:42;42.03;;;26.33;;
66886;SDS011;67239;51.680;5.976;2023-02-15T18:32:13;40.55;;;24.83;;
66886;SDS011;67239;51.680;5.976;2023-02-15T18:34:47;46.40;;;25.67;;
66886;SDS011;67239;51.680;5.976;2023-02-15T18:37:17;55.40;;;32.55;;